Terminal Aerodrome Forecast
Issued by NWS

Home | Current Version | Previous Version | Text Only | Print | Product List | Glossary On
Versions: 1 2 3 4 5 6 7 8 9 10 11 12 13 14 15
000
FTAK31 PANC 290536
TAFAAQ
TAF
PAAQ 290536Z 2906/3006 14015G25KT P6SM BKN070
     FM290800 13011KT P6SM VCSH BKN070
     FM291000 VRB05KT P6SM -SHRA BKN060
     FM292100 14012G20KT P6SM -SHRA BKN080=

USA.gov is the U.S. government's official web portal to all federal, state and local government web resources and services.